createdAt,value
2023-04-09T00:02:05.557Z,4.45
2023-04-09T00:04:33.644Z,4.07
2023-04-09T00:07:01.541Z,3.88
2023-04-09T00:09:30.989Z,4.43
2023-04-09T00:11:59.321Z,4.80
2023-04-09T00:14:27.426Z,4.40
2023-04-09T00:16:56.109Z,4.43
2023-04-09T00:19:24.166Z,4.07
2023-04-09T00:21:52.529Z,4.70
2023-04-09T00:24:20.610Z,5.30
2023-04-09T00:26:50.156Z,4.70
2023-04-09T00:29:18.316Z,4.68
2023-04-09T00:31:45.882Z,4.65
2023-04-09T00:34:14.079Z,4.70
2023-04-09T00:36:41.615Z,4.70
2023-04-09T00:39:09.333Z,4.85
2023-04-09T00:41:37.606Z,4.72
2023-04-09T00:44:06.689Z,4.20
2023-04-09T00:46:34.515Z,4.50
2023-04-09T00:49:02.420Z,3.50
2023-04-09T00:51:30.265Z,3.72
2023-04-09T00:53:58.498Z,3.85
2023-04-09T00:56:27.841Z,3.60
2023-04-09T00:58:55.794Z,3.80
2023-04-09T01:01:25.200Z,4.43
2023-04-09T01:03:53.602Z,4.30
2023-04-09T01:06:25.953Z,4.50
2023-04-09T01:09:04.152Z,4.10
2023-04-09T01:11:38.921Z,3.78
2023-04-09T01:14:13.959Z,4.63
2023-04-09T01:16:48.230Z,4.40
2023-04-09T01:19:30.844Z,4.40
2023-04-09T01:21:59.701Z,3.85
2023-04-09T01:24:40.248Z,4.32
2023-04-09T01:27:09.618Z,4.27
2023-04-09T01:29:42.648Z,4.20
2023-04-09T01:32:11.684Z,4.30
2023-04-09T01:34:40.208Z,4.32
2023-04-09T01:37:09.823Z,5.40
2023-04-09T01:39:39.070Z,6.30
2023-04-09T01:42:11.191Z,6.07
2023-04-09T01:44:41.840Z,5.32
2023-04-09T01:47:10.727Z,5.22
2023-04-09T01:49:39.796Z,5.32
2023-04-09T01:52:09.031Z,5.50
2023-04-09T01:54:36.920Z,5.47
2023-04-09T01:57:04.930Z,4.57
2023-04-09T01:59:32.739Z,3.70
2023-04-09T02:02:07.657Z,4.63
2023-04-09T02:04:38.777Z,4.83
2023-04-09T02:07:11.925Z,3.80
2023-04-09T02:09:42.228Z,4.47
2023-04-09T02:12:14.334Z,4.97
2023-04-09T02:14:42.899Z,5.13
2023-04-09T02:17:12.844Z,5.07
2023-04-09T02:19:41.873Z,4.68
2023-04-09T02:22:09.954Z,4.97
2023-04-09T02:24:38.255Z,4.70
2023-04-09T02:27:07.045Z,4.55
2023-04-09T02:29:35.371Z,4.73
2023-04-09T02:32:03.661Z,4.32
2023-04-09T02:34:33.112Z,4.65
2023-04-09T02:37:00.711Z,4.93
2023-04-09T02:39:28.661Z,4.18
2023-04-09T02:41:57.800Z,4.50
2023-04-09T02:44:26.553Z,5.10
2023-04-09T02:46:54.452Z,4.55
2023-04-09T02:49:22.157Z,4.70
2023-04-09T02:51:51.315Z,4.28
2023-04-09T02:54:19.603Z,4.60
2023-04-09T02:56:47.442Z,4.50
2023-04-09T02:59:15.401Z,4.43
2023-04-09T03:01:43.345Z,4.53
2023-04-09T03:04:11.639Z,4.47
2023-04-09T03:06:39.359Z,5.00
2023-04-09T03:09:08.486Z,4.97
2023-04-09T03:11:36.342Z,5.03
2023-04-09T03:14:04.177Z,4.07
2023-04-09T03:16:32.416Z,4.63
2023-04-09T03:19:00.384Z,4.17
2023-04-09T03:21:28.057Z,4.50
2023-04-09T03:23:56.125Z,4.28
2023-04-09T03:26:25.080Z,4.60
2023-04-09T03:28:53.493Z,4.97
2023-04-09T03:31:21.608Z,4.50
2023-04-09T03:33:49.281Z,4.55
2023-04-09T03:36:17.142Z,4.32
2023-04-09T03:38:44.905Z,4.32
2023-04-09T03:41:12.747Z,4.10
2023-04-09T03:43:42.173Z,4.10
2023-04-09T03:46:13.806Z,3.78
2023-04-09T03:48:41.616Z,4.75
2023-04-09T03:51:13.502Z,4.10
2023-04-09T03:53:41.902Z,3.95
2023-04-09T03:56:10.533Z,4.07
2023-04-09T03:58:39.262Z,4.10
2023-04-09T04:01:08.512Z,3.35
2023-04-09T04:03:37.083Z,3.53
2023-04-09T04:06:05.300Z,4.45
2023-04-09T04:08:33.158Z,4.27
2023-04-09T04:11:05.176Z,3.92
2023-04-09T04:13:33.263Z,4.53
2023-04-09T04:16:01.138Z,4.93
2023-04-09T04:18:30.745Z,4.07
2023-04-09T04:20:58.597Z,4.40
2023-04-09T04:23:26.597Z,5.88
2023-04-09T04:25:54.478Z,5.00
2023-04-09T04:28:22.739Z,4.80
2023-04-09T04:30:50.724Z,4.90
2023-04-09T04:33:18.755Z,5.73
2023-04-09T04:35:48.103Z,5.47
2023-04-09T04:38:15.915Z,5.03
2023-04-09T04:40:43.935Z,5.15
2023-04-09T04:43:11.515Z,4.53
2023-04-09T04:45:39.866Z,5.57
2023-04-09T04:48:08.346Z,5.10
2023-04-09T04:50:36.104Z,5.10
2023-04-09T04:53:05.545Z,4.72
2023-04-09T04:55:33.677Z,5.13
2023-04-09T04:58:01.841Z,5.60
2023-04-09T05:00:29.817Z,6.07
2023-04-09T05:02:57.634Z,5.47
2023-04-09T05:05:26.045Z,4.78
2023-04-09T05:07:53.922Z,5.40
2023-04-09T05:10:23.352Z,5.10
2023-04-09T05:12:51.648Z,6.10
2023-04-09T05:15:19.965Z,7.50
2023-04-09T05:17:48.004Z,6.07
2023-04-09T05:20:15.770Z,6.25
2023-04-09T05:22:43.638Z,5.50
2023-04-09T05:25:11.429Z,11.60
2023-04-09T05:27:40.633Z,7.30
2023-04-09T05:30:09.848Z,6.22
2023-04-09T05:32:38.102Z,5.95
2023-04-09T05:35:07.705Z,5.13
2023-04-09T05:37:35.499Z,4.65
2023-04-09T05:40:05.644Z,4.82
2023-04-09T05:42:33.369Z,4.72
2023-04-09T05:45:02.656Z,4.57
2023-04-09T05:47:30.694Z,5.17
2023-04-09T05:50:54.067Z,4.90
2023-04-09T05:53:23.645Z,7.40
2023-04-09T05:55:51.339Z,7.20
2023-04-09T05:58:19.939Z,8.05
2023-04-09T06:01:14.049Z,7.60
2023-04-09T06:03:42.237Z,7.38
2023-04-09T06:06:10.258Z,7.40
2023-04-09T06:11:45.813Z,7.32
2023-04-09T06:14:16.645Z,7.07
2023-04-09T06:16:45.798Z,7.38
2023-04-09T06:19:13.451Z,6.97
2023-04-09T06:21:43.527Z,8.45
2023-04-09T06:24:11.220Z,8.98
2023-04-09T06:26:39.259Z,9.80
2023-04-09T06:29:07.382Z,9.60
2023-04-09T06:31:35.422Z,8.73
2023-04-09T06:34:04.591Z,9.90
2023-04-09T06:36:33.441Z,8.70
2023-04-09T06:39:01.137Z,9.87
2023-04-09T06:41:28.960Z,10.20
2023-04-09T06:43:56.555Z,9.10
2023-04-09T06:46:24.573Z,9.32
2023-04-09T06:48:52.221Z,8.43
2023-04-09T06:51:21.480Z,8.40
2023-04-09T06:53:50.053Z,9.18
2023-04-09T06:56:17.986Z,9.40
2023-04-09T06:58:45.815Z,10.82
2023-04-09T07:01:13.680Z,10.32
2023-04-09T07:03:41.719Z,10.17
2023-04-09T07:06:09.632Z,10.77
2023-04-09T07:08:38.651Z,10.20
2023-04-09T07:11:06.451Z,9.95
2023-04-09T07:13:34.302Z,9.85
2023-04-09T07:16:02.036Z,10.30
2023-04-09T07:18:29.675Z,10.38
2023-04-09T07:20:57.416Z,10.52
2023-04-09T07:27:07.320Z,11.90
2023-04-09T07:29:35.316Z,11.57
2023-04-09T07:32:03.868Z,11.38
2023-04-09T07:34:32.137Z,10.50
2023-04-09T07:37:00.003Z,11.27
2023-04-09T07:39:27.809Z,10.70
2023-04-09T07:41:58.665Z,10.43
2023-04-09T07:44:28.545Z,10.27
2023-04-09T07:46:56.649Z,10.70
2023-04-09T07:49:26.192Z,9.93
2023-04-09T07:51:53.861Z,10.48
2023-04-09T07:54:21.795Z,10.70
2023-04-09T07:56:49.818Z,10.65
2023-04-09T07:59:17.543Z,10.15
2023-04-09T08:01:46.714Z,10.13
2023-04-09T08:04:14.493Z,10.40
2023-04-09T08:07:11.079Z,11.27
2023-04-09T08:09:38.676Z,10.15
2023-04-09T08:12:06.524Z,11.93
2023-04-09T08:14:34.404Z,10.48
2023-04-09T08:17:06.792Z,10.25
2023-04-09T08:19:34.439Z,10.73
2023-04-09T08:22:02.559Z,11.27
2023-04-09T08:24:30.465Z,10.45
2023-04-09T08:26:58.636Z,10.45
2023-04-09T08:29:28.120Z,11.13
2023-04-09T08:31:56.721Z,11.20
2023-04-09T08:34:27.413Z,12.48
2023-04-09T08:36:55.336Z,17.05
2023-04-09T08:39:23.004Z,11.35
2023-04-09T08:41:53.056Z,11.80
2023-04-09T08:44:22.036Z,13.33
2023-04-09T08:46:50.125Z,12.50
2023-04-09T08:49:17.759Z,10.07
2023-04-09T08:51:48.738Z,9.45
2023-04-09T08:54:18.971Z,10.38
2023-04-09T08:56:46.844Z,8.90
2023-04-09T08:59:17.102Z,9.23
2023-04-09T09:01:46.870Z,9.10
2023-04-09T09:04:14.643Z,8.00
2023-04-09T09:06:42.870Z,8.45
2023-04-09T09:09:12.934Z,8.10
2023-04-09T09:11:44.364Z,8.48
2023-04-09T09:14:16.313Z,8.60
2023-04-09T09:16:45.580Z,8.07
2023-04-09T09:19:31.724Z,9.60
2023-04-09T09:22:00.590Z,7.87
2023-04-09T09:24:30.243Z,8.77
2023-04-09T09:26:58.840Z,8.43
2023-04-09T09:29:27.040Z,8.88
2023-04-09T09:31:56.526Z,8.35
2023-04-09T09:34:26.385Z,8.20
2023-04-09T09:36:54.426Z,8.50
2023-04-09T09:39:22.393Z,7.53
2023-04-09T09:42:08.754Z,9.00
2023-04-09T09:44:36.566Z,8.13
2023-04-09T09:47:05.519Z,8.00
2023-04-09T09:49:33.380Z,7.22
2023-04-09T09:52:03.034Z,6.70
2023-04-09T09:54:36.728Z,6.97
2023-04-09T09:57:09.404Z,7.22
2023-04-09T09:59:41.875Z,6.13
2023-04-09T10:02:16.693Z,6.75
2023-04-09T10:04:45.033Z,5.60
2023-04-09T10:07:14.942Z,5.53
2023-04-09T10:09:47.153Z,6.28
2023-04-09T10:12:17.212Z,6.60
2023-04-09T10:14:46.157Z,6.05
2023-04-09T10:17:14.128Z,5.43
2023-04-09T10:19:45.858Z,5.50
2023-04-09T10:22:17.211Z,5.40
2023-04-09T10:24:46.165Z,5.70
2023-04-09T10:27:17.326Z,5.88
2023-04-09T10:29:47.130Z,5.43
2023-04-09T10:32:21.069Z,5.05
2023-04-09T10:34:50.982Z,5.38
2023-04-09T10:37:25.174Z,5.83
2023-04-09T10:39:54.448Z,5.43
2023-04-09T10:42:25.949Z,5.90
2023-04-09T10:45:08.913Z,6.43
2023-04-09T10:47:38.204Z,5.85
2023-04-09T10:50:17.434Z,5.53
2023-04-09T10:52:45.347Z,5.28
2023-04-09T10:55:31.740Z,6.13
2023-04-09T10:58:00.790Z,5.88
2023-04-09T11:00:28.674Z,5.50
2023-04-09T11:03:22.397Z,6.37
2023-04-09T11:05:53.978Z,5.82
2023-04-09T11:08:22.796Z,6.30
2023-04-09T11:10:52.402Z,5.40
2023-04-09T11:13:22.106Z,5.75
2023-04-09T11:15:49.970Z,6.03
2023-04-09T11:18:21.994Z,6.13
2023-04-09T11:20:50.291Z,6.13
2023-04-09T11:23:19.227Z,6.82
2023-04-09T11:25:50.892Z,6.10
2023-04-09T11:28:19.245Z,5.80
2023-04-09T11:30:51.596Z,5.82
2023-04-09T11:33:20.261Z,5.85
2023-04-09T11:35:49.432Z,6.32
2023-04-09T11:38:17.671Z,6.22
2023-04-09T11:40:48.766Z,5.90
2023-04-09T11:43:18.157Z,6.32
2023-04-09T11:45:48.824Z,6.75
2023-04-09T11:48:18.717Z,6.10
2023-04-09T11:50:46.820Z,7.25
2023-04-09T11:53:22.371Z,5.63
2023-04-09T11:55:52.612Z,5.68
2023-04-09T11:58:23.866Z,6.00
2023-04-09T12:01:00.154Z,5.93
2023-04-09T12:03:32.992Z,6.57
2023-04-09T12:06:02.940Z,5.73
2023-04-09T12:08:31.348Z,5.95
2023-04-09T12:11:09.831Z,5.75
2023-04-09T12:13:40.094Z,6.28
2023-04-09T12:16:09.750Z,6.88
2023-04-09T12:18:39.359Z,6.47
2023-04-09T12:21:07.622Z,6.57
2023-04-09T12:23:35.282Z,6.75
2023-04-09T12:26:04.124Z,6.90
2023-04-09T12:28:32.107Z,6.47
2023-04-09T12:30:59.905Z,5.77
2023-04-09T12:33:28.879Z,5.30
2023-04-09T12:35:58.473Z,5.57
2023-04-09T12:38:26.769Z,5.43
2023-04-09T12:40:54.492Z,6.20
2023-04-09T12:43:22.286Z,5.60
2023-04-09T12:45:53.307Z,6.22
2023-04-09T12:48:21.005Z,5.93
2023-04-09T12:50:51.865Z,5.68
2023-04-09T12:53:19.955Z,6.10
2023-04-09T12:55:49.227Z,5.83
2023-04-09T12:58:17.036Z,6.03
2023-04-09T13:00:44.810Z,5.80
2023-04-09T13:03:12.775Z,5.57
2023-04-09T13:05:40.767Z,5.70
2023-04-09T13:08:10.052Z,5.17
2023-04-09T13:10:37.789Z,5.70
2023-04-09T13:13:07.551Z,5.90
2023-04-09T13:15:35.549Z,5.22
2023-04-09T13:18:03.495Z,5.10
2023-04-09T13:20:31.857Z,5.40
2023-04-09T13:22:59.444Z,4.93
2023-04-09T13:25:29.773Z,4.85
2023-04-09T13:27:57.578Z,5.32
2023-04-09T13:30:25.549Z,5.38
2023-04-09T13:32:53.518Z,5.83
2023-04-09T13:35:21.330Z,5.55
2023-04-09T13:37:49.482Z,5.10
2023-04-09T13:40:17.681Z,5.22
2023-04-09T13:42:47.083Z,4.93
2023-04-09T13:45:14.682Z,4.97
2023-04-09T13:47:43.133Z,4.93
2023-04-09T13:50:13.407Z,5.65
2023-04-09T13:52:41.096Z,5.55
2023-04-09T13:55:10.559Z,5.13
2023-04-09T13:57:38.336Z,5.90
2023-04-09T14:00:09.150Z,5.72
2023-04-09T14:02:37.111Z,5.60
2023-04-09T14:05:04.992Z,6.10
2023-04-09T14:07:32.758Z,5.63
2023-04-09T14:10:00.623Z,5.60
2023-04-09T14:12:28.448Z,5.53
2023-04-09T14:14:56.351Z,5.55
2023-04-09T14:17:25.774Z,5.60
2023-04-09T14:19:54.556Z,5.43
2023-04-09T14:22:22.334Z,6.27
2023-04-09T14:24:50.266Z,9.57
2023-04-09T14:27:17.948Z,6.35
2023-04-09T14:29:45.759Z,10.07
2023-04-09T14:32:13.830Z,9.80
2023-04-09T14:34:43.138Z,6.07
2023-04-09T14:37:11.263Z,5.95
2023-04-09T14:39:40.663Z,5.25
2023-04-09T14:42:08.716Z,5.43
2023-04-09T14:44:36.414Z,5.53
2023-04-09T14:47:04.199Z,5.43
2023-04-09T14:49:31.928Z,5.78
2023-04-09T14:52:01.275Z,5.05
2023-04-09T14:54:30.408Z,5.10
2023-04-09T14:56:58.312Z,5.78
2023-04-09T14:59:27.479Z,5.17
2023-04-09T15:01:55.249Z,5.20
2023-04-09T15:04:23.927Z,5.03
2023-04-09T15:06:51.635Z,5.72
2023-04-09T15:09:21.683Z,5.05
2023-04-09T15:11:49.339Z,4.93
2023-04-09T15:14:17.748Z,5.75
2023-04-09T15:16:45.793Z,4.97
2023-04-09T15:19:14.195Z,5.07
2023-04-09T15:21:42.128Z,5.88
2023-04-09T15:24:09.770Z,5.17
2023-04-09T15:26:39.427Z,5.32
2023-04-09T15:29:09.202Z,5.88
2023-04-09T15:31:38.978Z,6.10
2023-04-09T15:34:08.299Z,6.20
2023-04-09T15:36:35.968Z,6.60
2023-04-09T15:39:04.840Z,6.18
2023-04-09T15:41:33.773Z,9.50
2023-04-09T15:44:02.826Z,5.43
2023-04-09T15:46:30.688Z,5.47
2023-04-09T15:48:58.522Z,6.07
2023-04-09T15:51:27.241Z,5.13
2023-04-09T15:53:55.478Z,5.25
2023-04-09T15:56:23.556Z,4.95
2023-04-09T15:58:52.908Z,5.93
2023-04-09T16:01:22.152Z,5.07
2023-04-09T16:03:52.442Z,5.78
2023-04-09T16:06:21.276Z,5.28
2023-04-09T16:08:49.249Z,6.13
2023-04-09T16:11:17.319Z,5.85
2023-04-09T16:13:45.304Z,6.27
2023-04-09T16:16:13.286Z,5.80
2023-04-09T16:18:42.752Z,5.68
2023-04-09T16:21:10.759Z,5.25
2023-04-09T16:23:38.984Z,5.68
2023-04-09T16:26:07.720Z,5.37
2023-04-09T16:28:35.973Z,5.40
2023-04-09T16:31:03.859Z,5.57
2023-04-09T16:33:31.805Z,5.95
2023-04-09T16:36:01.288Z,5.93
2023-04-09T16:38:31.336Z,5.70
2023-04-09T16:40:59.425Z,5.57
2023-04-09T16:43:27.463Z,5.10
2023-04-09T16:45:55.933Z,5.00
2023-04-09T16:48:24.044Z,6.63
2023-04-09T16:50:52.094Z,6.47
2023-04-09T16:53:21.455Z,6.43
2023-04-09T16:55:50.071Z,6.72
2023-04-09T16:58:18.213Z,6.32
2023-04-09T17:00:47.407Z,6.35
2023-04-09T17:03:16.397Z,6.10
2023-04-09T17:05:49.468Z,6.57
2023-04-09T17:08:17.579Z,6.25
2023-04-09T17:10:46.762Z,7.80
2023-04-09T17:13:14.612Z,9.48
2023-04-09T17:15:42.904Z,8.43
2023-04-09T17:18:11.317Z,6.45
2023-04-09T17:20:39.180Z,5.93
2023-04-09T17:23:08.066Z,5.45
2023-04-09T17:25:36.108Z,6.40
2023-04-09T17:28:06.135Z,5.80
2023-04-09T17:30:34.970Z,7.25
2023-04-09T17:33:02.715Z,7.65
2023-04-09T17:35:30.799Z,8.43
2023-04-09T17:37:58.999Z,7.60
2023-04-09T17:40:28.110Z,7.37
2023-04-09T17:42:56.528Z,6.80
2023-04-09T17:45:27.057Z,6.20
2023-04-09T17:47:55.454Z,13.00
2023-04-09T17:50:23.381Z,12.38
2023-04-09T17:52:51.271Z,13.90
2023-04-09T17:55:19.602Z,11.15
2023-04-09T17:57:47.882Z,10.13
2023-04-09T18:00:16.861Z,9.88
2023-04-09T18:02:47.224Z,11.00
2023-04-09T18:05:16.342Z,9.50
2023-04-09T18:07:44.730Z,9.20
2023-04-09T18:10:13.020Z,8.25
2023-04-09T18:12:41.065Z,10.82
2023-04-09T18:15:09.738Z,11.75
2023-04-09T18:17:37.815Z,12.90
2023-04-09T18:20:08.600Z,12.88
2023-04-09T18:22:38.133Z,10.88
2023-04-09T18:25:07.274Z,10.65
2023-04-09T18:27:35.515Z,10.00
2023-04-09T18:30:03.657Z,9.70
2023-04-09T18:32:32.403Z,9.18
2023-04-09T18:35:01.200Z,11.50
2023-04-09T18:37:31.086Z,11.20
2023-04-09T18:40:01.255Z,10.90
2023-04-09T18:42:31.088Z,11.30
2023-04-09T18:44:59.092Z,11.25
2023-04-09T18:47:29.056Z,10.27
2023-04-09T18:49:57.807Z,8.82
2023-04-09T18:52:25.800Z,9.10
2023-04-09T18:54:55.035Z,8.00
2023-04-09T18:57:23.138Z,5.80
2023-04-09T18:59:51.641Z,5.85
2023-04-09T19:02:19.971Z,5.90
2023-04-09T19:04:49.345Z,6.57
2023-04-09T19:07:18.004Z,7.13
2023-04-09T19:09:46.061Z,7.07
2023-04-09T19:12:15.031Z,7.13
2023-04-09T19:14:42.944Z,7.07
2023-04-09T19:17:12.162Z,8.38
2023-04-09T19:19:40.941Z,8.67
2023-04-09T19:22:08.955Z,9.45
2023-04-09T19:24:37.493Z,9.05
2023-04-09T19:27:09.789Z,8.65
2023-04-09T19:29:39.525Z,9.07
2023-04-09T19:32:09.411Z,9.70
2023-04-09T19:34:37.485Z,11.13
2023-04-09T19:37:05.529Z,12.20
2023-04-09T19:39:33.662Z,13.30
2023-04-09T19:42:02.848Z,12.85
2023-04-09T19:44:30.932Z,12.37
2023-04-09T19:47:00.496Z,11.90
2023-04-09T19:49:30.719Z,11.77
2023-04-09T19:51:58.587Z,13.05
2023-04-09T19:54:26.958Z,11.88
2023-04-09T19:56:56.354Z,11.93
2023-04-09T19:59:24.777Z,11.23
2023-04-09T20:01:54.211Z,13.27
2023-04-09T20:04:24.727Z,13.00
2023-04-09T20:06:53.283Z,14.05
2023-04-09T20:09:25.910Z,13.63
2023-04-09T20:11:54.585Z,13.18
2023-04-09T20:14:22.721Z,13.48
2023-04-09T20:16:51.021Z,13.05
2023-04-09T20:19:22.248Z,13.18
2023-04-09T20:21:53.138Z,12.70
2023-04-09T20:24:22.410Z,11.55
2023-04-09T20:26:51.715Z,11.70
2023-04-09T20:29:21.694Z,11.85
2023-04-09T20:31:49.455Z,11.43
2023-04-09T20:34:22.203Z,12.13
2023-04-09T20:36:51.776Z,12.88
2023-04-09T20:39:20.186Z,12.65
2023-04-09T20:41:51.947Z,10.70
2023-04-09T20:44:19.941Z,11.05
2023-04-09T20:46:48.603Z,13.57
2023-04-09T20:49:17.924Z,14.68
2023-04-09T20:51:46.377Z,14.40
2023-04-09T20:54:18.127Z,13.90
2023-04-09T20:56:46.088Z,12.55
2023-04-09T20:59:14.132Z,12.50
2023-04-09T21:01:41.868Z,11.98
2023-04-09T21:04:10.100Z,11.30
2023-04-09T21:06:38.152Z,12.18
2023-04-09T21:09:06.319Z,10.75
2023-04-09T21:11:36.142Z,11.33
2023-04-09T21:14:07.006Z,11.63
2023-04-09T21:16:36.003Z,12.43
2023-04-09T21:19:07.244Z,14.68
2023-04-09T21:21:35.400Z,11.48
2023-04-09T21:24:04.123Z,12.60
2023-04-09T21:26:48.724Z,12.13
2023-04-09T21:29:19.220Z,11.73
2023-04-09T21:31:47.132Z,11.90
2023-04-09T21:34:15.192Z,10.68
2023-04-09T21:36:45.595Z,11.33
2023-04-09T21:39:14.136Z,10.15
2023-04-09T21:41:42.183Z,10.45
2023-04-09T21:44:10.585Z,9.57
2023-04-09T21:46:40.846Z,11.07
2023-04-09T21:49:09.233Z,11.80
2023-04-09T21:51:38.035Z,9.82
2023-04-09T21:54:06.281Z,9.50
2023-04-09T21:56:34.849Z,9.18
2023-04-09T21:59:03.037Z,8.48
2023-04-09T22:01:31.794Z,8.80
2023-04-09T22:04:01.834Z,8.57
2023-04-09T22:06:31.196Z,9.35
2023-04-09T22:08:59.844Z,9.55
2023-04-09T22:11:29.083Z,11.00
2023-04-09T22:13:58.150Z,11.33
2023-04-09T22:16:26.785Z,8.93
2023-04-09T22:18:55.693Z,7.75
2023-04-09T22:21:25.472Z,8.13
2023-04-09T22:23:53.796Z,7.60
2023-04-09T22:26:22.069Z,8.10
2023-04-09T22:28:50.340Z,6.90
2023-04-09T22:31:18.439Z,6.70
2023-04-09T22:33:46.081Z,6.45
2023-04-09T22:36:14.027Z,6.53
2023-04-09T22:38:44.124Z,6.53
2023-04-09T22:41:11.758Z,7.38
2023-04-09T22:43:39.537Z,7.72
2023-04-09T22:46:08.102Z,8.00
2023-04-09T22:48:43.829Z,8.05
2023-04-09T22:54:24.430Z,7.80
2023-04-09T22:56:52.329Z,7.85
2023-04-09T22:59:23.045Z,7.90
2023-04-09T23:01:57.660Z,7.38
2023-04-09T23:04:27.898Z,8.07
2023-04-09T23:06:56.037Z,8.02
2023-04-09T23:09:25.345Z,8.00
2023-04-09T23:11:53.103Z,8.10
2023-04-09T23:14:21.464Z,7.75
2023-04-09T23:16:49.363Z,7.83
2023-04-09T23:19:17.028Z,7.65
2023-04-09T23:21:45.174Z,8.20
2023-04-09T23:24:13.545Z,8.15
2023-04-09T23:26:43.382Z,7.50
2023-04-09T23:29:11.250Z,7.33
2023-04-09T23:31:41.025Z,7.75
2023-04-09T23:34:09.334Z,7.68
2023-04-09T23:36:37.334Z,7.60
2023-04-09T23:39:05.452Z,7.75
2023-04-09T23:41:33.813Z,9.27
2023-04-09T23:44:03.114Z,7.97
2023-04-09T23:46:30.805Z,7.22
2023-04-09T23:48:59.263Z,7.55
2023-04-09T23:51:27.149Z,6.97
2023-04-09T23:53:55.276Z,7.47
2023-04-09T23:56:24.069Z,7.57
2023-04-09T23:58:51.994Z,6.90
